Wetterdaten: Woche 22.06.15 - 28.06.15 (KW26)
Datum Zeit Temp. A. Feuchte A. Luftdruck Regen Wind Richtung Sonnenschein ET UV Solar Taupunkt Windchill Windben Empfang
22.06.2015 00:00 10,7 C 90 % 1016,7 hPa 0,0 l/m 0,0 km/h (0 Bft) N 0,00 h 0,000 mm 0,0 UV-I 0 W/m 9,1 C 10,7 C 0,0 km/h (0 Bft) 0,00 %
22.06.2015 01:00 10,7 C 90 % 1016,0 hPa 0,0 l/m 0,0 km/h (0 Bft) N 0,00 h 0,000 mm 0,0 UV-I 0 W/m 9,2 C 10,7 C 0,0 km/h (0 Bft) 0,00 %
22.06.2015 02:00 10,7 C 92 % 1015,5 hPa 0,0 l/m 0,0 km/h (0 Bft) N 0,00 h 0,000 mm 0,0 UV-I 0 W/m 9,4 C 10,7 C 0,0 km/h (0 Bft) 0,00 %
22.06.2015 03:00 11,0 C 92 % 1015,4 hPa 0,3 l/m 0,0 km/h (0 Bft) N 0,00 h 0,000 mm 0,0 UV-I 0 W/m 9,7 C 11,0 C 0,0 km/h (0 Bft) 0,00 %
22.06.2015 04:00 11,4 C 91 % 1015,3 hPa 0,3 l/m 0,0 km/h (0 Bft) N 0,00 h 0,000 mm 0,0 UV-I 0 W/m 10,0 C 11,4 C 0,3 km/h (0 Bft) 0,00 %
22.06.2015 05:00 11,4 C 93 % 1015,3 hPa 0,0 l/m 0,0 km/h (0 Bft) N 0,00 h 0,000 mm 0,0 UV-I 11 W/m 10,2 C 11,4 C 0,0 km/h (0 Bft) 0,00 %
22.06.2015 06:00 13,4 C 88 % 1015,0 hPa 0,0 l/m 0,0 km/h (0 Bft) N 0,33 h 0,000 mm 1,0 UV-I 105 W/m 11,4 C 13,4 C 0,0 km/h (0 Bft) 0,00 %
22.06.2015 07:00 15,0 C 80 % 1014,9 hPa 0,0 l/m 0,5 km/h (0 Bft) SW 0,33 h 0,000 mm 1,0 UV-I 218 W/m 11,5 C 15,0 C 2,3 km/h (1 Bft) 0,00 %
22.06.2015 08:00 14,2 C 85 % 1015,2 hPa 0,3 l/m 0,4 km/h (0 Bft) O-SO 0,00 h 0,000 mm 1,2 UV-I 152 W/m 11,7 C 14,2 C 1,7 km/h (1 Bft) 0,00 %
22.06.2015 09:00 17,6 C 72 % 1014,3 hPa 0,0 l/m 1,3 km/h (1 Bft) S-SW 0,83 h 0,000 mm 2,5 UV-I 504 W/m 12,5 C 17,6 C 3,0 km/h (1 Bft) 0,00 %
22.06.2015 10:00 19,9 C 61 % 1013,6 hPa 0,0 l/m 3,8 km/h (1 Bft) S-SW 1,00 h 0,000 mm 3,6 UV-I 681 W/m 12,2 C 19,9 C 6,6 km/h (2 Bft) 0,00 %
22.06.2015 11:00 21,8 C 53 % 1012,6 hPa 0,0 l/m 3,0 km/h (1 Bft) W-SW 0,92 h 0,000 mm 4,7 UV-I 739 W/m 11,8 C 21,7 C 5,3 km/h (1 Bft) 0,00 %
22.06.2015 12:00 23,4 C 46 % 1011,4 hPa 0,0 l/m 1,4 km/h (1 Bft) SW 0,75 h 0,000 mm 4,6 UV-I 712 W/m 11,2 C 23,4 C 3,6 km/h (1 Bft) 0,00 %
22.06.2015 13:00 24,3 C 41 % 1010,0 hPa 0,0 l/m 2,8 km/h (1 Bft) SW 1,00 h 0,000 mm 4,0 UV-I 701 W/m 10,1 C 24,2 C 6,0 km/h (2 Bft) 0,00 %
22.06.2015 14:00 24,1 C 37 % 1009,0 hPa 0,0 l/m 5,6 km/h (1 Bft) SO 0,92 h 0,000 mm 3,4 UV-I 634 W/m 8,6 C 23,9 C 9,6 km/h (2 Bft) 0,00 %
22.06.2015 15:00 24,8 C 36 % 1008,4 hPa 0,0 l/m 2,6 km/h (1 Bft) W-SW 0,75 h 0,000 mm 2,8 UV-I 548 W/m 8,5 C 24,7 C 5,6 km/h (1 Bft) 0,00 %
22.06.2015 16:00 23,3 C 45 % 1008,5 hPa 0,0 l/m 3,0 km/h (1 Bft) S 0,00 h 0,000 mm 1,7 UV-I 267 W/m 10,6 C 23,0 C 5,0 km/h (1 Bft) 0,00 %
22.06.2015 17:00 16,4 C 70 % 1011,2 hPa 0,0 l/m 2,9 km/h (1 Bft) W-SW 0,00 h 0,000 mm 1,0 UV-I 105 W/m 10,9 C 16,1 C 7,3 km/h (2 Bft) 0,00 %
22.06.2015 18:00 13,8 C 87 % 1012,8 hPa 2,4 l/m 0,7 km/h (0 Bft) W-SW 0,00 h 0,000 mm 1,0 UV-I 37 W/m 11,7 C 13,8 C 1,7 km/h (1 Bft) 0,00 %
22.06.2015 19:00 12,9 C 93 % 1013,3 hPa 0,9 l/m 0,0 km/h (0 Bft) N 0,00 h 0,000 mm 0,0 UV-I 26 W/m 11,8 C 12,9 C 0,0 km/h (0 Bft) 0,00 %
22.06.2015 20:00 12,8 C 93 % 1012,8 hPa 0,6 l/m 0,0 km/h (0 Bft) N 0,00 h 0,000 mm 0,0 UV-I 4 W/m 11,7 C 12,8 C 0,0 km/h (0 Bft) 0,00 %
22.06.2015 21:00 12,3 C 94 % 1011,8 hPa 0,0 l/m 0,4 km/h (0 Bft) O-SO 0,00 h 0,000 mm 0,0 UV-I 0 W/m 11,3 C 12,3 C 2,0 km/h (1 Bft) 0,00 %
22.06.2015 22:00 12,0 C 94 % 1010,6 hPa 0,0 l/m 1,7 km/h (1 Bft) O-SO 0,00 h 0,000 mm 0,0 UV-I 0 W/m 11,1 C 12,0 C 2,6 km/h (1 Bft) 0,00 %
22.06.2015 23:00 11,7 C 94 % 1008,5 hPa 2,1 l/m 3,7 km/h (1 Bft) O-SO 0,00 h 0,000 mm 0,0 UV-I 0 W/m 10,8 C 11,3 C 5,8 km/h (2 Bft) 0,00 %
23.06.2015 00:00 11,3 C 93 % 1006,3 hPa 0,0 l/m 3,5 km/h (1 Bft) O-SO 0,00 h 0,000 mm 0,0 UV-I 0 W/m 10,2 C 10,9 C 5,3 km/h (1 Bft) 0,00 %
23.06.2015 01:00 10,7 C 95 % 1004,9 hPa 0,0 l/m 0,1 km/h (0 Bft) NO 0,00 h 0,000 mm 0,0 UV-I 0 W/m 10,0 C 10,7 C 0,7 km/h (0 Bft) 0,00 %
23.06.2015 02:00 10,4 C 98 % 1005,2 hPa 0,6 l/m 1,3 km/h (1 Bft) W-SW 0,00 h 0,000 mm 0,0 UV-I 0 W/m 10,1 C 10,4 C 2,6 km/h (1 Bft) 0,00 %
23.06.2015 03:00 10,7 C 98 % 1008,9 hPa 3,3 l/m 0,3 km/h (0 Bft) W-SW 0,00 h 0,000 mm 0,0 UV-I 0 W/m 10,4 C 10,7 C 1,3 km/h (1 Bft) 0,00 %
23.06.2015 04:00 11,1 C 97 % 1009,0 hPa 0,6 l/m 0,3 km/h (0 Bft) NO 0,00 h 0,000 mm 0,0 UV-I 0 W/m 10,7 C 11,1 C 0,7 km/h (0 Bft) 0,00 %
23.06.2015 05:00 11,2 C 96 % 1008,8 hPa 1,5 l/m 1,4 km/h (1 Bft) SW 0,00 h 0,000 mm 0,0 UV-I 0 W/m 10,5 C 11,2 C 4,3 km/h (1 Bft) 0,00 %
23.06.2015 06:00 10,7 C 95 % 1009,7 hPa 3,0 l/m 2,1 km/h (1 Bft) NO 0,00 h 0,000 mm 0,0 UV-I 12 W/m 9,8 C 10,7 C 4,6 km/h (1 Bft) 0,00 %
23.06.2015 07:00 10,5 C 95 % 1010,1 hPa 1,2 l/m 0,4 km/h (0 Bft) O 0,00 h 0,000 mm 0,0 UV-I 24 W/m 9,7 C 10,5 C 2,3 km/h (1 Bft) 0,00 %
23.06.2015 08:00 10,8 C 92 % 1010,4 hPa 0,0 l/m 1,5 km/h (1 Bft) W-SW 0,00 h 0,000 mm 1,0 UV-I 123 W/m 9,5 C 10,8 C 4,3 km/h (1 Bft) 0,00 %
23.06.2015 09:00 10,8 C 89 % 1010,7 hPa 0,0 l/m 2,4 km/h (1 Bft) SW 0,00 h 0,000 mm 1,0 UV-I 119 W/m 9,0 C 10,7 C 4,3 km/h (1 Bft) 0,00 %
23.06.2015 10:00 11,4 C 85 % 1010,8 hPa 0,0 l/m 2,0 km/h (1 Bft) N-NW 0,00 h 0,000 mm 1,4 UV-I 226 W/m 9,0 C 11,4 C 5,0 km/h (1 Bft) 0,00 %
23.06.2015 11:00 13,7 C 76 % 1010,7 hPa 0,0 l/m 2,9 km/h (1 Bft) O 0,42 h 0,000 mm 3,0 UV-I 529 W/m 9,5 C 13,6 C 6,6 km/h (2 Bft) 0,00 %
23.06.2015 12:00 15,0 C 69 % 1010,9 hPa 0,0 l/m 2,3 km/h (1 Bft) O 0,17 h 0,000 mm 2,5 UV-I 363 W/m 9,4 C 14,9 C 5,6 km/h (1 Bft) 0,00 %
23.06.2015 13:00 16,0 C 63 % 1010,9 hPa 0,0 l/m 3,2 km/h (1 Bft) W-SW 0,17 h 0,000 mm 3,5 UV-I 387 W/m 9,0 C 16,0 C 6,9 km/h (2 Bft) 0,00 %
23.06.2015 14:00 15,8 C 59 % 1011,4 hPa 0,0 l/m 2,0 km/h (1 Bft) W-SW 0,00 h 0,000 mm 1,5 UV-I 225 W/m 7,7 C 15,7 C 4,3 km/h (1 Bft) 0,00 %
23.06.2015 15:00 16,4 C 60 % 1011,8 hPa 0,0 l/m 2,2 km/h (1 Bft) S 0,25 h 0,000 mm 2,2 UV-I 402 W/m 8,6 C 16,4 C 4,6 km/h (1 Bft) 0,00 %
23.06.2015 16:00 15,8 C 53 % 1012,5 hPa 0,0 l/m 0,8 km/h (0 Bft) S-SW 0,17 h 0,000 mm 1,3 UV-I 292 W/m 6,1 C 15,8 C 2,3 km/h (1 Bft) 0,00 %
23.06.2015 17:00 16,3 C 51 % 1012,5 hPa 0,0 l/m 2,0 km/h (1 Bft) W-SW 0,00 h 0,000 mm 1,0 UV-I 209 W/m 6,1 C 16,3 C 5,3 km/h (1 Bft) 0,00 %
23.06.2015 18:00 15,3 C 54 % 1012,8 hPa 0,0 l/m 0,4 km/h (0 Bft) W-SW 0,00 h 0,000 mm 1,0 UV-I 71 W/m 6,1 C 15,3 C 2,0 km/h (1 Bft) 0,00 %
23.06.2015 19:00 14,4 C 64 % 1013,4 hPa 0,0 l/m 0,0 km/h (0 Bft) N 0,00 h 0,000 mm 0,0 UV-I 12 W/m 7,7 C 14,4 C 0,3 km/h (0 Bft) 0,00 %
23.06.2015 20:00 13,6 C 74 % 1014,1 hPa 0,0 l/m 0,1 km/h (0 Bft) N 0,00 h 0,000 mm 0,0 UV-I 0 W/m 9,1 C 13,6 C 0,3 km/h (0 Bft) 0,00 %
23.06.2015 21:00 12,4 C 81 % 1015,4 hPa 0,0 l/m 0,2 km/h (0 Bft) W-SW 0,00 h 0,000 mm 0,0 UV-I 0 W/m 9,2 C 12,4 C 1,0 km/h (0 Bft) 0,00 %
23.06.2015 22:00 11,5 C 83 % 1016,6 hPa 0,0 l/m 1,9 km/h (1 Bft) W-SW 0,00 h 0,000 mm 0,0 UV-I 0 W/m 8,7 C 11,3 C 3,6 km/h (1 Bft) 0,00 %
23.06.2015 23:00 11,0 C 83 % 1017,5 hPa 0,0 l/m 1,3 km/h (1 Bft) W-SW 0,00 h 0,000 mm 0,0 UV-I 0 W/m 8,2 C 11,0 C 3,0 km/h (1 Bft) 0,00 %
24.06.2015 00:00 10,3 C 82 % 1018,0 hPa 0,0 l/m 0,4 km/h (0 Bft) W 0,00 h 0,000 mm 0,0 UV-I 0 W/m 7,4 C 10,3 C 1,0 km/h (0 Bft) 0,00 %
24.06.2015 01:00 9,3 C 87 % 1018,6 hPa 0,0 l/m 0,0 km/h (0 Bft) N 0,00 h 0,000 mm 0,0 UV-I 0 W/m 7,3 C 9,3 C 0,0 km/h (0 Bft) 0,00 %
24.06.2015 02:00 9,5 C 86 % 1018,9 hPa 0,0 l/m 0,1 km/h (0 Bft) W-SW 0,00 h 0,000 mm 0,0 UV-I 0 W/m 7,2 C 9,5 C 1,0 km/h (0 Bft) 0,00 %
24.06.2015 03:00 9,9 C 85 % 1019,1 hPa 0,0 l/m 1,1 km/h (0 Bft) W-SW 0,00 h 0,000 mm 0,0 UV-I 0 W/m 7,4 C 9,9 C 2,3 km/h (1 Bft) 0,00 %
24.06.2015 04:00 9,6 C 88 % 1019,4 hPa 0,0 l/m 0,3 km/h (0 Bft) S-SW 0,00 h 0,000 mm 0,0 UV-I 0 W/m 7,8 C 9,6 C 1,0 km/h (0 Bft) 0,00 %
24.06.2015 05:00 9,3 C 87 % 1020,1 hPa 0,0 l/m 0,9 km/h (0 Bft) W-SW 0,25 h 0,000 mm 0,0 UV-I 36 W/m 7,3 C 9,3 C 3,3 km/h (1 Bft) 0,00 %
24.06.2015 06:00 10,0 C 84 % 1020,5 hPa 0,0 l/m 0,6 km/h (0 Bft) W-SW 0,33 h 0,000 mm 1,0 UV-I 81 W/m 7,4 C 10,0 C 2,0 km/h (1 Bft) 0,00 %
24.06.2015 07:00 11,3 C 80 % 1021,0 hPa 0,0 l/m 0,3 km/h (0 Bft) S-SW 0,17 h 0,000 mm 1,0 UV-I 118 W/m 7,9 C 11,3 C 1,3 km/h (1 Bft) 0,00 %
24.06.2015 08:00 11,7 C 78 % 1021,4 hPa 0,0 l/m 1,1 km/h (0 Bft) W-SW 0,00 h 0,000 mm 1,1 UV-I 147 W/m 8,0 C 11,7 C 3,3 km/h (1 Bft) 0,00 %
24.06.2015 09:00 13,3 C 73 % 1021,6 hPa 0,0 l/m 3,2 km/h (1 Bft) W-SW 0,00 h 0,000 mm 1,6 UV-I 215 W/m 8,6 C 13,1 C 5,3 km/h (1 Bft) 0,00 %
24.06.2015 10:00 14,1 C 69 % 1021,7 hPa 0,0 l/m 1,4 km/h (1 Bft) W-SW 0,00 h 0,000 mm 1,8 UV-I 272 W/m 8,4 C 14,1 C 2,7 km/h (1 Bft) 0,00 %
24.06.2015 11:00 15,5 C 62 % 1021,7 hPa 0,0 l/m 1,3 km/h (1 Bft) N-NO 0,17 h 0,000 mm 2,3 UV-I 396 W/m 8,2 C 15,5 C 3,3 km/h (1 Bft) 0,00 %
24.06.2015 12:00 17,0 C 56 % 1021,6 hPa 0,0 l/m 0,8 km/h (0 Bft) NO 0,33 h 0,000 mm 3,5 UV-I 586 W/m 8,3 C 17,0 C 2,0 km/h (1 Bft) 0,00 %
24.06.2015 13:00 16,9 C 56 % 1021,5 hPa 0,0 l/m 2,2 km/h (1 Bft) S 0,17 h 0,000 mm 2,1 UV-I 377 W/m 8,1 C 16,7 C 4,6 km/h (1 Bft) 0,00 %
24.06.2015 14:00 18,2 C 52 % 1021,1 hPa 0,0 l/m 2,5 km/h (1 Bft) SW 0,67 h 0,000 mm 3,5 UV-I 615 W/m 8,1 C 18,2 C 4,6 km/h (1 Bft) 0,00 %
24.06.2015 15:00 18,9 C 49 % 1020,9 hPa 0,0 l/m 3,1 km/h (1 Bft) S 0,58 h 0,000 mm 2,8 UV-I 565 W/m 7,9 C 18,8 C 5,6 km/h (1 Bft) 0,00 %
24.06.2015 16:00 19,5 C 50 % 1020,9 hPa 0,0 l/m 0,9 km/h (0 Bft) W 1,00 h 0,000 mm 2,2 UV-I 617 W/m 8,7 C 19,5 C 1,6 km/h (1 Bft) 0,00 %
24.06.2015 17:00 18,5 C 50 % 1021,0 hPa 0,0 l/m 1,4 km/h (1 Bft) W-SW 1,00 h 0,000 mm 1,7 UV-I 620 W/m 8,0 C 18,5 C 4,3 km/h (1 Bft) 0,00 %
24.06.2015 18:00 19,8 C 45 % 1021,0 hPa 0,0 l/m 1,5 km/h (1 Bft) W 1,00 h 0,000 mm 1,0 UV-I 698 W/m 7,4 C 19,8 C 3,6 km/h (1 Bft) 0,00 %
24.06.2015 19:00 19,6 C 48 % 1021,4 hPa 0,0 l/m 0,3 km/h (0 Bft) NW 1,00 h 0,000 mm 1,0 UV-I 500 W/m 8,1 C 19,6 C 1,0 km/h (0 Bft) 0,00 %
24.06.2015 20:00 18,7 C 52 % 1021,8 hPa 0,0 l/m 0,0 km/h (0 Bft) N 1,00 h 0,000 mm 0,0 UV-I 180 W/m 8,6 C 18,7 C 0,0 km/h (0 Bft) 0,00 %
24.06.2015 21:00 13,4 C 73 % 1023,0 hPa 0,0 l/m 0,0 km/h (0 Bft) N 0,00 h 0,000 mm 0,0 UV-I 4 W/m 8,6 C 13,4 C 0,0 km/h (0 Bft) 0,00 %
24.06.2015 22:00 11,1 C 80 % 1023,7 hPa 0,0 l/m 0,0 km/h (0 Bft) N 0,00 h 0,000 mm 0,0 UV-I 0 W/m 7,8 C 11,1 C 0,0 km/h (0 Bft) 0,00 %
24.06.2015 23:00 10,1 C 85 % 1023,9 hPa 0,0 l/m 0,0 km/h (0 Bft) N 0,00 h 0,000 mm 0,0 UV-I 0 W/m 7,7 C 10,1 C 0,4 km/h (0 Bft) 0,00 %
25.06.2015 00:00 9,9 C 88 % 1024,0 hPa 0,0 l/m 0,0 km/h (0 Bft) N 0,00 h 0,000 mm 0,0 UV-I 0 W/m 8,0 C 9,9 C 0,0 km/h (0 Bft) 0,00 %
25.06.2015 01:00 9,0 C 90 % 1024,4 hPa 0,0 l/m 0,0 km/h (0 Bft) N 0,00 h 0,000 mm 0,0 UV-I 0 W/m 7,4 C 9,0 C 0,0 km/h (0 Bft) 0,00 %
25.06.2015 02:00 8,1 C 92 % 1024,5 hPa 0,0 l/m 0,0 km/h (0 Bft) N 0,00 h 0,000 mm 0,0 UV-I 0 W/m 6,9 C 8,1 C 0,0 km/h (0 Bft) 0,00 %
25.06.2015 03:00 7,6 C 94 % 1024,6 hPa 0,0 l/m 0,0 km/h (0 Bft) N 0,00 h 0,000 mm 0,0 UV-I 0 W/m 6,7 C 7,6 C 0,0 km/h (0 Bft) 0,00 %
25.06.2015 04:00 6,7 C 95 % 1024,8 hPa 0,0 l/m 0,0 km/h (0 Bft) N 0,00 h 0,000 mm 0,0 UV-I 0 W/m 6,0 C 6,7 C 0,0 km/h (0 Bft) 0,00 %
25.06.2015 05:00 6,5 C 95 % 1025,0 hPa 0,0 l/m 0,0 km/h (0 Bft) N 0,67 h 0,000 mm 0,0 UV-I 53 W/m 5,8 C 6,5 C 0,0 km/h (0 Bft) 0,00 %
25.06.2015 06:00 13,2 C 82 % 1024,0 hPa 0,0 l/m 0,0 km/h (0 Bft) N 1,00 h 0,000 mm 1,0 UV-I 280 W/m 9,9 C 13,2 C 0,0 km/h (0 Bft) 0,00 %
25.06.2015 07:00 16,9 C 61 % 1023,5 hPa 0,0 l/m 0,0 km/h (0 Bft) N 1,00 h 0,000 mm 1,0 UV-I 418 W/m 9,4 C 16,9 C 0,3 km/h (0 Bft) 0,00 %
25.06.2015 08:00 17,3 C 62 % 1023,3 hPa 0,0 l/m 0,4 km/h (0 Bft) O-NO 1,00 h 0,000 mm 1,8 UV-I 475 W/m 9,9 C 17,3 C 1,3 km/h (1 Bft) 0,00 %
25.06.2015 09:00 17,9 C 60 % 1023,2 hPa 0,0 l/m 0,9 km/h (0 Bft) NO 1,00 h 0,000 mm 2,4 UV-I 573 W/m 10,0 C 17,9 C 2,0 km/h (1 Bft) 0,00 %
25.06.2015 10:00 19,4 C 55 % 1022,6 hPa 0,0 l/m 1,2 km/h (1 Bft) O 1,00 h 0,000 mm 3,5 UV-I 685 W/m 10,0 C 19,4 C 2,7 km/h (1 Bft) 0,00 %
25.06.2015 11:00 20,8 C 47 % 1022,2 hPa 0,0 l/m 1,2 km/h (1 Bft) O 1,00 h 0,000 mm 4,6 UV-I 768 W/m 9,0 C 20,8 C 2,7 km/h (1 Bft) 0,00 %
25.06.2015 12:00 21,4 C 43 % 1021,9 hPa 0,0 l/m 2,4 km/h (1 Bft) W-NW 1,00 h 0,000 mm 5,6 UV-I 844 W/m 8,2 C 21,3 C 5,0 km/h (1 Bft) 0,00 %
25.06.2015 13:00 22,9 C 33 % 1021,4 hPa 0,0 l/m 1,0 km/h (0 Bft) W-SW 1,00 h 0,000 mm 5,7 UV-I 871 W/m 5,8 C 22,9 C 2,3 km/h (1 Bft) 0,00 %
25.06.2015 14:00 23,3 C 32 % 1021,2 hPa 0,0 l/m 0,8 km/h (0 Bft) O-SO 1,00 h 0,000 mm 5,7 UV-I 946 W/m 5,5 C 23,3 C 1,7 km/h (1 Bft) 0,00 %
25.06.2015 15:00 24,5 C 29 % 1020,8 hPa 0,0 l/m 1,3 km/h (1 Bft) NW 1,00 h 0,000 mm 4,6 UV-I 926 W/m 5,1 C 24,5 C 2,3 km/h (1 Bft) 0,00 %
25.06.2015 16:00 24,4 C 29 % 1020,6 hPa 0,0 l/m 3,1 km/h (1 Bft) W-SW 1,00 h 0,000 mm 3,2 UV-I 803 W/m 5,3 C 24,3 C 5,3 km/h (1 Bft) 0,00 %
25.06.2015 17:00 24,6 C 29 % 1020,4 hPa 0,0 l/m 1,7 km/h (1 Bft) W-NW 1,00 h 0,000 mm 1,9 UV-I 587 W/m 5,4 C 24,6 C 3,3 km/h (1 Bft) 0,00 %
25.06.2015 18:00 22,4 C 39 % 1020,7 hPa 0,0 l/m 0,5 km/h (0 Bft) O-NO 0,92 h 0,000 mm 1,0 UV-I 471 W/m 7,7 C 22,4 C 1,7 km/h (1 Bft) 0,00 %
25.06.2015 19:00 20,7 C 48 % 1021,0 hPa 0,0 l/m 0,8 km/h (0 Bft) N 0,33 h 0,000 mm 1,0 UV-I 105 W/m 9,1 C 20,7 C 2,0 km/h (1 Bft) 0,00 %
25.06.2015 20:00 18,0 C 56 % 1021,6 hPa 0,0 l/m 0,1 km/h (0 Bft) N 0,00 h 0,000 mm 0,0 UV-I 10 W/m 9,1 C 18,0 C 0,3 km/h (0 Bft) 0,00 %
25.06.2015 21:00 15,7 C 67 % 1022,3 hPa 0,0 l/m 0,0 km/h (0 Bft) N 0,00 h 0,000 mm 0,0 UV-I 0 W/m 9,6 C 15,7 C 0,0 km/h (0 Bft) 0,00 %
25.06.2015 22:00 14,0 C 77 % 1022,9 hPa 0,0 l/m 0,0 km/h (0 Bft) N 0,00 h 0,000 mm 0,0 UV-I 0 W/m 10,0 C 14,0 C 0,0 km/h (0 Bft) 0,00 %
25.06.2015 23:00 13,4 C 81 % 1023,1 hPa 0,0 l/m 0,0 km/h (0 Bft) N 0,00 h 0,000 mm 0,0 UV-I 0 W/m 10,2 C 13,4 C 0,0 km/h (0 Bft) 0,00 %
26.06.2015 00:00 13,1 C 80 % 1023,2 hPa 0,0 l/m 0,0 km/h (0 Bft) N 0,00 h 0,000 mm 0,0 UV-I 0 W/m 9,7 C 13,1 C 0,0 km/h (0 Bft) 0,00 %
26.06.2015 01:00 12,0 C 82 % 1023,2 hPa 0,0 l/m 0,0 km/h (0 Bft) N 0,00 h 0,000 mm 0,0 UV-I 0 W/m 9,0 C 12,0 C 0,0 km/h (0 Bft) 0,00 %
26.06.2015 02:00 10,7 C 86 % 1023,2 hPa 0,0 l/m 0,0 km/h (0 Bft) N 0,00 h 0,000 mm 0,0 UV-I 0 W/m 8,4 C 10,7 C 0,0 km/h (0 Bft) 0,00 %
26.06.2015 03:00 10,0 C 90 % 1023,0 hPa 0,0 l/m 0,0 km/h (0 Bft) N 0,00 h 0,000 mm 0,0 UV-I 0 W/m 8,4 C 10,0 C 0,0 km/h (0 Bft) 0,00 %
26.06.2015 04:00 9,7 C 91 % 1023,0 hPa 0,0 l/m 0,0 km/h (0 Bft) N 0,00 h 0,000 mm 0,0 UV-I 0 W/m 8,4 C 9,7 C 0,0 km/h (0 Bft) 0,00 %
26.06.2015 05:00 10,0 C 92 % 1023,0 hPa 0,0 l/m 0,0 km/h (0 Bft) N 0,33 h 0,000 mm 0,0 UV-I 44 W/m 8,7 C 10,0 C 0,0 km/h (0 Bft) 0,00 %
26.06.2015 06:00 14,2 C 74 % 1022,4 hPa 0,0 l/m 0,0 km/h (0 Bft) N 1,00 h 0,000 mm 1,0 UV-I 255 W/m 9,6 C 14,2 C 0,3 km/h (0 Bft) 0,00 %
26.06.2015 07:00 17,3 C 63 % 1022,1 hPa 0,0 l/m 0,4 km/h (0 Bft) W-SW 0,92 h 0,000 mm 1,0 UV-I 395 W/m 10,3 C 17,3 C 1,3 km/h (1 Bft) 0,00 %
26.06.2015 08:00 19,8 C 53 % 1021,9 hPa 0,0 l/m 0,6 km/h (0 Bft) SW 0,92 h 0,000 mm 1,9 UV-I 488 W/m 9,9 C 19,8 C 1,3 km/h (1 Bft) 0,00 %
26.06.2015 09:00 21,1 C 50 % 1021,8 hPa 0,0 l/m 1,2 km/h (1 Bft) NO 1,00 h 0,000 mm 2,5 UV-I 592 W/m 10,2 C 21,1 C 3,0 km/h (1 Bft) 0,00 %
26.06.2015 10:00 23,4 C 45 % 1021,1 hPa 0,0 l/m 0,5 km/h (0 Bft) W-SW 1,00 h 0,000 mm 3,5 UV-I 706 W/m 10,9 C 23,4 C 1,3 km/h (1 Bft) 0,00 %
26.06.2015 11:00 24,2 C 41 % 1020,4 hPa 0,0 l/m 1,8 km/h (1 Bft) W-NW 0,92 h 0,000 mm 4,5 UV-I 772 W/m 9,9 C 24,2 C 3,6 km/h (1 Bft) 0,00 %
26.06.2015 12:00 24,8 C 36 % 1019,7 hPa 0,0 l/m 0,6 km/h (0 Bft) N-NO 0,83 h 0,000 mm 4,4 UV-I 758 W/m 8,4 C 24,8 C 2,7 km/h (1 Bft) 0,00 %
26.06.2015 13:00 25,0 C 34 % 1019,1 hPa 0,0 l/m 0,8 km/h (0 Bft) W-SW 0,75 h 0,000 mm 3,9 UV-I 738 W/m 7,8 C 25,0 C 2,3 km/h (1 Bft) 0,00 %
26.06.2015 14:00 26,0 C 31 % 1018,4 hPa 0,0 l/m 2,1 km/h (1 Bft) N-NW 0,92 h 0,000 mm 4,7 UV-I 880 W/m 7,4 C 26,0 C 4,6 km/h (1 Bft) 0,00 %
26.06.2015 15:00 26,0 C 30 % 1018,0 hPa 0,0 l/m 2,3 km/h (1 Bft) W 1,00 h 0,000 mm 4,2 UV-I 792 W/m 7,1 C 26,0 C 4,6 km/h (1 Bft) 0,00 %
26.06.2015 16:00 25,5 C 33 % 1017,9 hPa 0,0 l/m 1,7 km/h (1 Bft) W-SW 1,00 h 0,000 mm 2,6 UV-I 630 W/m 8,1 C 25,5 C 2,6 km/h (1 Bft) 0,00 %
26.06.2015 17:00 25,0 C 35 % 1017,6 hPa 0,0 l/m 1,4 km/h (1 Bft) W-SW 0,75 h 0,000 mm 1,8 UV-I 370 W/m 8,6 C 24,9 C 2,6 km/h (1 Bft) 0,00 %
26.06.2015 18:00 23,5 C 43 % 1017,6 hPa 0,0 l/m 0,0 km/h (0 Bft) N 0,00 h 0,000 mm 1,0 UV-I 123 W/m 10,2 C 23,5 C 0,0 km/h (0 Bft) 0,00 %
26.06.2015 19:00 21,9 C 48 % 1017,8 hPa 0,0 l/m 0,0 km/h (0 Bft) N 0,00 h 0,000 mm 0,0 UV-I 52 W/m 10,4 C 21,9 C 0,0 km/h (0 Bft) 0,00 %
26.06.2015 20:00 20,6 C 56 % 1017,9 hPa 0,0 l/m 0,0 km/h (0 Bft) N 0,00 h 0,000 mm 0,0 UV-I 6 W/m 11,4 C 20,6 C 0,0 km/h (0 Bft) 0,00 %
26.06.2015 21:00 19,2 C 64 % 1018,3 hPa 0,0 l/m 0,0 km/h (0 Bft) N 0,00 h 0,000 mm 0,0 UV-I 0 W/m 12,3 C 19,2 C 0,0 km/h (0 Bft) 0,00 %
26.06.2015 22:00 18,2 C 66 % 1018,4 hPa 0,0 l/m 0,0 km/h (0 Bft) N 0,00 h 0,000 mm 0,0 UV-I 0 W/m 11,8 C 18,2 C 0,0 km/h (0 Bft) 0,00 %
26.06.2015 23:00 17,6 C 68 % 1018,1 hPa 0,0 l/m 0,0 km/h (0 Bft) N 0,00 h 0,000 mm 0,0 UV-I 0 W/m 11,7 C 17,6 C 0,0 km/h (0 Bft) 0,00 %
27.06.2015 00:00 17,1 C 70 % 1017,9 hPa 0,0 l/m 0,0 km/h (0 Bft) N 0,00 h 0,000 mm 0,0 UV-I 0 W/m 11,7 C 17,1 C 0,0 km/h (0 Bft) 0,00 %
27.06.2015 01:00 16,7 C 71 % 1017,5 hPa 0,0 l/m 0,0 km/h (0 Bft) N 0,00 h 0,000 mm 0,0 UV-I 0 W/m 11,5 C 16,7 C 0,0 km/h (0 Bft) 0,00 %
27.06.2015 02:00 16,4 C 71 % 1017,1 hPa 0,0 l/m 0,0 km/h (0 Bft) N 0,00 h 0,000 mm 0,0 UV-I 0 W/m 11,1 C 16,4 C 0,0 km/h (0 Bft) 0,00 %
27.06.2015 03:00 16,1 C 71 % 1016,9 hPa 0,0 l/m 0,0 km/h (0 Bft) N 0,00 h 0,000 mm 0,0 UV-I 0 W/m 10,9 C 16,1 C 0,3 km/h (0 Bft) 0,00 %
27.06.2015 04:00 15,6 C 76 % 1016,9 hPa 0,0 l/m 0,1 km/h (0 Bft) N 0,00 h 0,000 mm 0,0 UV-I 0 W/m 11,4 C 15,6 C 0,3 km/h (0 Bft) 0,00 %
27.06.2015 05:00 15,7 C 78 % 1016,8 hPa 0,0 l/m 0,0 km/h (0 Bft) N 0,00 h 0,000 mm 0,0 UV-I 9 W/m 11,9 C 15,7 C 0,0 km/h (0 Bft) 0,00 %
27.06.2015 06:00 16,0 C 77 % 1016,7 hPa 0,0 l/m 0,0 km/h (0 Bft) N 0,00 h 0,000 mm 0,0 UV-I 41 W/m 11,9 C 16,0 C 0,0 km/h (0 Bft) 0,00 %
27.06.2015 07:00 16,4 C 76 % 1016,7 hPa 0,0 l/m 0,0 km/h (0 Bft) N 0,00 h 0,000 mm 1,0 UV-I 68 W/m 12,2 C 16,4 C 0,0 km/h (0 Bft) 0,00 %
27.06.2015 08:00 17,9 C 72 % 1016,5 hPa 0,0 l/m 0,1 km/h (0 Bft) W-NW 0,00 h 0,000 mm 1,0 UV-I 149 W/m 12,7 C 17,9 C 0,3 km/h (0 Bft) 0,00 %
27.06.2015 09:00 18,1 C 72 % 1016,8 hPa 0,0 l/m 0,0 km/h (0 Bft) N 0,00 h 0,000 mm 1,0 UV-I 98 W/m 13,0 C 18,1 C 0,3 km/h (0 Bft) 0,00 %
27.06.2015 10:00 18,5 C 72 % 1016,8 hPa 0,0 l/m 0,0 km/h (0 Bft) N 0,00 h 0,000 mm 1,3 UV-I 201 W/m 13,4 C 18,5 C 0,0 km/h (0 Bft) 0,00 %
27.06.2015 11:00 20,8 C 61 % 1016,6 hPa 0,0 l/m 0,0 km/h (0 Bft) N 0,00 h 0,000 mm 1,6 UV-I 329 W/m 13,0 C 20,8 C 0,0 km/h (0 Bft) 0,00 %
27.06.2015 12:00 21,9 C 59 % 1016,4 hPa 0,0 l/m 0,0 km/h (0 Bft) N 0,00 h 0,000 mm 2,0 UV-I 426 W/m 13,6 C 21,9 C 0,0 km/h (0 Bft) 0,00 %
27.06.2015 13:00 22,8 C 55 % 1015,6 hPa 0,0 l/m 0,2 km/h (0 Bft) SW 0,75 h 0,000 mm 3,2 UV-I 611 W/m 13,1 C 22,8 C 0,3 km/h (0 Bft) 0,00 %
27.06.2015 14:00 23,7 C 50 % 1015,2 hPa 0,0 l/m 1,2 km/h (1 Bft) O-NO 0,42 h 0,000 mm 2,4 UV-I 364 W/m 12,6 C 23,7 C 2,6 km/h (1 Bft) 0,00 %
27.06.2015 15:00 16,9 C 86 % 1016,6 hPa 3,3 l/m 2,4 km/h (1 Bft) W-SW 0,00 h 0,000 mm 1,0 UV-I 79 W/m 14,5 C 16,8 C 4,3 km/h (1 Bft) 0,00 %
27.06.2015 16:00 16,4 C 93 % 1015,8 hPa 0,6 l/m 0,1 km/h (0 Bft) N 0,00 h 0,000 mm 1,0 UV-I 168 W/m 15,2 C 16,4 C 0,7 km/h (0 Bft) 0,00 %
27.06.2015 17:00 17,1 C 86 % 1015,2 hPa 0,0 l/m 0,0 km/h (0 Bft) N 0,00 h 0,000 mm 1,0 UV-I 240 W/m 14,7 C 17,1 C 0,3 km/h (0 Bft) 0,00 %
27.06.2015 18:00 17,4 C 83 % 1015,3 hPa 0,0 l/m 0,0 km/h (0 Bft) N 0,08 h 0,000 mm 1,0 UV-I 129 W/m 14,5 C 17,4 C 0,3 km/h (0 Bft) 0,00 %
27.06.2015 19:00 17,6 C 83 % 1015,4 hPa 0,0 l/m 0,0 km/h (0 Bft) N 0,75 h 0,000 mm 1,0 UV-I 220 W/m 14,6 C 17,6 C 0,0 km/h (0 Bft) 0,00 %
27.06.2015 20:00 16,7 C 88 % 1016,4 hPa 0,0 l/m 0,0 km/h (0 Bft) N 0,00 h 0,000 mm 0,0 UV-I 22 W/m 14,6 C 16,7 C 0,0 km/h (0 Bft) 0,00 %
27.06.2015 21:00 15,2 C 94 % 1018,7 hPa 0,0 l/m 0,0 km/h (0 Bft) N 0,00 h 0,000 mm 0,0 UV-I 0 W/m 14,2 C 15,2 C 0,0 km/h (0 Bft) 0,00 %
27.06.2015 22:00 15,1 C 95 % 1019,1 hPa 0,0 l/m 0,0 km/h (0 Bft) N 0,00 h 0,000 mm 0,0 UV-I 0 W/m 14,3 C 15,1 C 0,0 km/h (0 Bft) 0,00 %
27.06.2015 23:00 14,6 C 94 % 1018,5 hPa 1,2 l/m 0,4 km/h (0 Bft) W 0,00 h 0,000 mm 0,0 UV-I 0 W/m 13,6 C 14,6 C 1,5 km/h (1 Bft) 0,00 %
28.06.2015 00:00 13,0 C 92 % 1019,1 hPa 2,1 l/m 0,0 km/h (0 Bft) N 0,00 h 0,000 mm 0,0 UV-I 0 W/m 11,8 C 13,0 C 0,3 km/h (0 Bft) 0,00 %
28.06.2015 01:00 13,1 C 94 % 1018,8 hPa 0,0 l/m 0,7 km/h (0 Bft) O-SO 0,00 h 0,000 mm 0,0 UV-I 0 W/m 12,2 C 13,1 C 2,3 km/h (1 Bft) 0,00 %
28.06.2015 02:00 12,9 C 93 % 1018,6 hPa 0,0 l/m 0,1 km/h (0 Bft) W-NW 0,00 h 0,000 mm 0,0 UV-I 0 W/m 11,8 C 12,9 C 0,7 km/h (0 Bft) 0,00 %
28.06.2015 03:00 13,0 C 95 % 1018,9 hPa 0,0 l/m 1,6 km/h (1 Bft) W-NW 0,00 h 0,000 mm 0,0 UV-I 0 W/m 12,2 C 13,0 C 4,0 km/h (1 Bft) 0,00 %
28.06.2015 04:00 13,4 C 95 % 1018,9 hPa 0,0 l/m 0,5 km/h (0 Bft) W-SW 0,00 h 0,000 mm 0,0 UV-I 0 W/m 12,7 C 13,4 C 1,7 km/h (1 Bft) 0,00 %
28.06.2015 05:00 13,5 C 96 % 1019,2 hPa 0,9 l/m 0,1 km/h (0 Bft) N 0,00 h 0,000 mm 0,0 UV-I 12 W/m 12,8 C 13,5 C 0,7 km/h (0 Bft) 0,00 %
28.06.2015 06:00 13,8 C 96 % 1019,5 hPa 0,0 l/m 0,4 km/h (0 Bft) SW 0,00 h 0,000 mm 0,0 UV-I 55 W/m 13,2 C 13,8 C 0,7 km/h (0 Bft) 0,00 %
28.06.2015 07:00 14,5 C 95 % 1019,9 hPa 0,0 l/m 0,4 km/h (0 Bft) W-NW 0,17 h 0,000 mm 1,0 UV-I 128 W/m 13,7 C 14,5 C 1,3 km/h (1 Bft) 0,00 %
28.06.2015 08:00 15,5 C 88 % 1020,0 hPa 0,0 l/m 3,1 km/h (1 Bft) W-SW 0,83 h 0,000 mm 1,4 UV-I 387 W/m 13,4 C 15,1 C 5,6 km/h (1 Bft) 0,00 %
28.06.2015 09:00 17,1 C 80 % 1020,1 hPa 0,0 l/m 3,0 km/h (1 Bft) W-SW 0,67 h 0,000 mm 2,2 UV-I 436 W/m 13,5 C 16,9 C 5,3 km/h (1 Bft) 0,00 %
28.06.2015 10:00 18,6 C 71 % 1020,1 hPa 0,0 l/m 2,9 km/h (1 Bft) W-SW 1,00 h 0,000 mm 3,2 UV-I 703 W/m 13,3 C 18,6 C 5,6 km/h (1 Bft) 0,00 %
28.06.2015 11:00 20,2 C 63 % 1019,6 hPa 0,0 l/m 1,6 km/h (1 Bft) NO 0,75 h 0,000 mm 3,5 UV-I 710 W/m 12,9 C 20,2 C 4,0 km/h (1 Bft) 0,00 %
28.06.2015 12:00 21,3 C 59 % 1019,2 hPa 0,0 l/m 2,3 km/h (1 Bft) W-SW 0,75 h 0,000 mm 4,5 UV-I 738 W/m 12,8 C 21,2 C 5,3 km/h (1 Bft) 0,00 %
28.06.2015 13:00 22,4 C 54 % 1018,9 hPa 0,0 l/m 3,9 km/h (1 Bft) W-SW 0,83 h 0,000 mm 4,7 UV-I 768 W/m 12,7 C 22,3 C 6,3 km/h (2 Bft) 0,00 %
28.06.2015 14:00 21,7 C 56 % 1018,7 hPa 0,0 l/m 2,1 km/h (1 Bft) NW 0,25 h 0,000 mm 3,0 UV-I 373 W/m 12,5 C 21,7 C 4,3 km/h (1 Bft) 0,00 %
28.06.2015 15:00 22,7 C 46 % 1018,3 hPa 0,0 l/m 1,6 km/h (1 Bft) N-NO 1,00 h 0,000 mm 3,9 UV-I 932 W/m 10,4 C 22,6 C 4,0 km/h (1 Bft) 0,00 %
28.06.2015 16:00 23,8 C 41 % 1018,0 hPa 0,0 l/m 3,9 km/h (1 Bft) W-NW 0,92 h 0,000 mm 3,4 UV-I 850 W/m 9,7 C 23,6 C 6,3 km/h (2 Bft) 0,00 %
28.06.2015 17:00 23,4 C 41 % 1017,8 hPa 0,0 l/m 2,0 km/h (1 Bft) W-NW 1,00 h 0,000 mm 1,9 UV-I 775 W/m 9,3 C 23,4 C 4,6 km/h (1 Bft) 0,00 %
28.06.2015 18:00 23,1 C 41 % 1017,9 hPa 0,0 l/m 2,1 km/h (1 Bft) W-SW 1,00 h 0,000 mm 1,0 UV-I 597 W/m 9,2 C 23,1 C 4,6 km/h (1 Bft) 0,00 %
28.06.2015 19:00 22,2 C 44 % 1018,3 hPa 0,0 l/m 1,8 km/h (1 Bft) S-SO 1,00 h 0,000 mm 1,0 UV-I 335 W/m 9,2 C 22,2 C 4,0 km/h (1 Bft) 0,00 %
28.06.2015 20:00 19,9 C 55 % 1019,3 hPa 0,0 l/m 0,8 km/h (0 Bft) N-NW 0,17 h 0,000 mm 0,0 UV-I 38 W/m 10,4 C 19,9 C 2,3 km/h (1 Bft) 0,00 %
28.06.2015 21:00 16,5 C 77 % 1020,5 hPa 0,0 l/m 0,0 km/h (0 Bft) N 0,00 h 0,000 mm 0,0 UV-I 0 W/m 12,4 C 16,5 C 0,0 km/h (0 Bft) 0,00 %
28.06.2015 22:00 15,0 C 85 % 1021,1 hPa 0,0 l/m 0,0 km/h (0 Bft) N 0,00 h 0,000 mm 0,0 UV-I 0 W/m 12,5 C 15,0 C 0,0 km/h (0 Bft) 0,00 %
28.06.2015 23:00 14,0 C 88 % 1021,5 hPa 0,0 l/m 0,0 km/h (0 Bft) N 0,00 h 0,000 mm 0,0 UV-I 0 W/m 12,1 C 14,0 C 0,0 km/h (0 Bft) 0,00 %
Min-Datum _ 25.06.15 25.06.15 23.06.15 - 22.06.15 - - - - - 25.06.15 25.06.15 22.06.15 22.06.15
_ Min-Zeit 05:15 15:45 02:10 - 00:00 - - - - - 15:45 05:15 00:00 00:00
Minimum _ 6,2 C 25 % 1003,8 hPa - 0,0 km/h (0 Bft) - - - - - 3,2 C 6,2 C 0,0 km/h (0 Bft) 0,00 %
Max-Datum _ 26.06.15 23.06.15 25.06.15 23.06.15 22.06.15 - 22.06.15 22.06.15 23.06.15 24.06.15 27.06.15 26.06.15 22.06.15 22.06.15
_ Max-Zeit 14:45 02:00 05:10 03:10 16:50 - 06:00 00:00 13:15 15:10 15:05 14:45 16:50 00:00
Maximum _ 26,5 C 98 % 1025,1 hPa 3,3 l/m 16,6 km/h
S (3 Bft)
- 0,08 h 0,000 mm 7,0 UV-I 1083 W/m 15,8 C 26,5 C 24,1 km/h
S (4 Bft)
0,00 %
Durchschnitt _ 16,2 C 70 % 1017,7 hPa #25,2 l/m 1,0 km/h (0 Bft) W-SW #53:15 h #0,000 mm 2,3 UV-I 377 W/m 10,0 C 16,2 C 2,1 km/h (1 Bft) 0,00 %